Time;durP1;ratioP1;P1;durP2;ratioP2;P2;SDS_P1;SDS_P2;PMS_P1;PMS_P2;Temp;Humidity;BMP_temperature;BMP_pressure;BME280_temperature;BME280_humidity;BME280_pressure;Samples;Min_cycle;Max_cycle;Signal;HPM_P1;HPM_P2
2021/06/02 00:01:45;;;;;;;3.10;2.90;;;19.40;52.60;;;;;;5113359;28;20489;-67
2021/06/02 00:04:14;;;;;;;4.50;3.37;;;19.30;52.70;;;;;;5117085;28;20434;-67
2021/06/02 00:06:42;;;;;;;3.67;3.10;;;19.30;53.00;;;;;;5117190;28;20446;-67
2021/06/02 00:09:08;;;;;;;3.23;3.03;;;19.30;53.10;;;;;;5116724;28;20839;-67
2021/06/02 00:11:37;;;;;;;3.67;3.37;;;19.30;53.90;;;;;;5117102;28;20439;-67
2021/06/02 00:14:04;;;;;;;4.17;3.70;;;19.20;53.50;;;;;;5116821;28;20423;-67
2021/06/02 00:16:30;;;;;;;4.03;3.70;;;19.10;53.60;;;;;;5117018;28;20573;-67
2021/06/02 00:18:57;;;;;;;3.93;3.53;;;19.10;53.70;;;;;;5116944;28;20466;-67
2021/06/02 00:21:24;;;;;;;5.40;3.63;;;19.00;53.70;;;;;;5116839;28;20486;-67
2021/06/02 00:23:50;;;;;;;3.73;3.43;;;19.00;53.70;;;;;;5116540;28;20781;-67
2021/06/02 00:26:18;;;;;;;3.57;2.93;;;19.00;53.70;;;;;;5116792;28;20447;-67
2021/06/02 00:28:46;;;;;;;3.20;3.00;;;18.90;53.60;;;;;;5116420;28;20447;-67
2021/06/02 00:31:15;;;;;;;3.30;2.50;;;18.80;53.60;;;;;;5116710;28;20419;-67
2021/06/02 00:33:42;;;;;;;3.23;3.00;;;18.80;53.60;;;;;;5116648;28;20439;-67
2021/06/02 00:36:12;;;;;;;3.53;3.23;;;18.70;53.60;;;;;;5116290;28;20968;-67
2021/06/02 00:38:40;;;;;;;3.90;3.60;;;18.70;53.90;;;;;;5116499;28;20467;-67
2021/06/02 00:41:06;;;;;;;4.70;2.97;;;18.70;54.20;;;;;;5116514;28;20435;-67
2021/06/02 00:43:33;;;;;;;4.23;3.77;;;18.60;54.20;;;;;;5116461;28;20504;-67
2021/06/02 00:46:01;;;;;;;3.90;3.30;;;18.60;54.30;;;;;;5116180;28;20439;-67
2021/06/02 00:48:28;;;;;;;3.80;3.50;;;18.60;54.50;;;;;;5116409;28;20463;-67
2021/06/02 00:50:54;;;;;;;3.70;3.40;;;18.60;54.60;;;;;;5116463;28;20458;-67
2021/06/02 00:53:21;;;;;;;3.63;3.33;;;18.60;54.80;;;;;;5116373;28;20597;-67
2021/06/02 00:55:47;;;;;;;4.00;3.70;;;18.50;54.80;;;;;;5116271;28;20443;-67
2021/06/02 00:58:20;;;;;;;3.40;3.10;;;18.50;55.00;;;;;;5115728;28;20843;-68
2021/06/02 01:00:46;;;;;;;3.57;3.30;;;18.50;55.10;;;;;;5116512;28;20432;-67
2021/06/02 01:03:21;;;;;;;4.00;3.60;;;18.40;55.10;;;;;;5116311;28;20479;-67
2021/06/02 01:05:48;;;;;;;5.00;3.13;;;18.40;55.20;;;;;;5116168;28;20434;-67
2021/06/02 01:08:16;;;;;;;3.70;3.40;;;18.30;55.20;;;;;;5115953;28;20516;-67
2021/06/02 01:10:45;;;;;;;3.63;3.40;;;18.30;55.20;;;;;;5116034;28;20443;-67
2021/06/02 01:13:14;;;;;;;7.30;3.97;;;18.20;55.20;;;;;;5115996;27;20420;-67
2021/06/02 01:15:40;;;;;;;3.60;3.30;;;18.10;55.00;;;;;;5116670;28;20881;-67
2021/06/02 01:18:09;;;;;;;4.40;3.50;;;18.10;55.20;;;;;;5115449;28;20502;-67
2021/06/02 01:20:38;;;;;;;5.00;4.60;;;18.00;55.20;;;;;;5115779;28;20462;-67
2021/06/02 01:23:06;;;;;;;5.47;4.57;;;18.00;55.40;;;;;;5115680;27;20595;-67
2021/06/02 01:25:35;;;;;;;3.97;3.60;;;18.00;55.40;;;;;;5115668;28;20488;-67
2021/06/02 01:28:01;;;;;;;3.93;3.57;;;18.00;55.40;;;;;;5115777;28;20474;-67
2021/06/02 01:30:28;;;;;;;4.27;3.80;;;18.00;55.60;;;;;;5115640;27;20446;-67
2021/06/02 01:33:09;;;;;;;3.70;3.20;;;17.90;55.60;;;;;;5115570;28;20423;-67
2021/06/02 01:35:56;;;;;;;3.50;3.20;;;17.90;55.90;;;;;;5115228;28;20913;-67
2021/06/02 01:38:58;;;;;;;4.20;3.80;;;17.90;56.00;;;;;;5115369;28;20454;-67
2021/06/02 01:41:28;;;;;;;3.50;3.30;;;17.90;56.30;;;;;;5115315;28;20470;-67
2021/06/02 01:44:31;;;;;;;5.10;3.37;;;17.90;56.50;;;;;;5115583;28;20461;-67
2021/06/02 01:47:18;;;;;;;4.50;4.10;;;17.90;56.70;;;;;;5115280;28;20431;-67
2021/06/02 01:50:20;;;;;;;3.70;3.40;;;17.90;56.80;;;;;;5114895;28;20924;-67
2021/06/02 01:53:36;;;;;;;3.40;3.13;;;17.90;56.90;;;;;;5094269;27;20458;-67
2021/06/02 01:56:48;;;;;;;7.60;4.20;;;17.80;56.30;;;;;;5115096;28;20427;-67
2021/06/02 01:59:48;;;;;;;5.50;3.37;;;17.70;56.00;;;;;;5077122;28;20515;-67
2021/06/02 02:02:41;;;;;;;4.60;3.20;;;17.70;56.10;;;;;;5114651;28;20994;-67
2021/06/02 02:05:23;;;;;;;6.60;3.90;;;17.60;56.40;;;;;;5114925;28;20860;-67
2021/06/02 02:08:10;;;;;;;3.90;3.50;;;17.60;56.70;;;;;;5114564;28;20463;-67
2021/06/02 02:10:43;;;;;;;3.80;3.50;;;17.60;57.00;;;;;;5114887;28;20434;-67
2021/06/02 02:13:24;;;;;;;4.07;3.53;;;17.50;56.80;;;;;;5114812;28;20427;-67
2021/06/02 02:16:14;;;;;;;4.07;3.33;;;17.40;56.60;;;;;;5114442;28;20930;-67
2021/06/02 02:18:48;;;;;;;4.00;3.53;;;17.40;56.60;;;;;;5114311;28;20980;-67
2021/06/02 02:21:33;;;;;;;4.07;3.67;;;17.30;56.40;;;;;;5114540;28;20426;-67
2021/06/02 02:24:08;;;;;;;3.80;3.47;;;17.20;56.20;;;;;;5114560;28;20460;-67
2021/06/02 02:26:39;;;;;;;3.57;3.27;;;17.20;56.40;;;;;;5113976;28;20441;-67
2021/06/02 02:29:22;;;;;;;4.03;3.73;;;17.20;56.60;;;;;;5114097;28;20980;-67
2021/06/02 02:32:04;;;;;;;3.93;3.63;;;17.20;56.90;;;;;;5114455;28;20788;-67
2021/06/02 02:35:07;;;;;;;4.33;4.00;;;17.10;56.90;;;;;;5114472;28;20793;-67
2021/06/02 02:37:39;;;;;;;3.60;3.30;;;17.10;57.10;;;;;;5113921;28;20968;-67
2021/06/02 02:40:10;;;;;;;3.77;3.47;;;17.10;57.20;;;;;;5114314;28;20423;-67
2021/06/02 02:42:43;;;;;;;4.30;4.00;;;17.00;57.20;;;;;;5113922;28;20462;-67
2021/06/02 02:45:21;;;;;;;3.53;3.33;;;17.00;57.30;;;;;;5113947;28;20909;-67
2021/06/02 02:48:00;;;;;;;3.53;3.10;;;16.90;57.20;;;;;;5113819;28;20980;-67
2021/06/02 02:50:37;;;;;;;4.13;3.73;;;16.80;57.10;;;;;;5114738;28;20423;-67
2021/06/02 02:53:10;;;;;;;4.93;3.33;;;16.80;57.30;;;;;;5113826;28;20448;-67
2021/06/02 02:55:38;;;;;;;3.93;3.53;;;16.70;57.40;;;;;;5114100;28;20431;-67
2021/06/02 02:58:13;;;;;;;4.10;3.53;;;16.70;57.70;;;;;;5113837;28;20467;-67
2021/06/02 03:00:43;;;;;;;4.20;3.87;;;16.60;57.60;;;;;;5114026;28;20422;-67
2021/06/02 03:03:17;;;;;;;3.60;3.40;;;16.60;57.80;;;;;;5113993;28;20469;-67
2021/06/02 03:05:55;;;;;;;3.60;3.30;;;16.50;58.00;;;;;;5113675;28;20801;-67
2021/06/02 03:08:31;;;;;;;4.03;3.50;;;16.50;58.10;;;;;;5113846;28;20463;-66
2021/06/02 03:11:06;;;;;;;4.20;3.80;;;16.40;58.00;;;;;;5114126;28;20427;-66
2021/06/02 03:13:42;;;;;;;3.47;3.17;;;16.40;58.20;;;;;;5114002;28;20792;-66
2021/06/02 03:16:14;;;;;;;3.80;3.50;;;16.40;58.50;;;;;;5113690;28;20423;-67
2021/06/02 03:18:46;;;;;;;4.83;4.23;;;16.40;58.50;;;;;;5113935;28;20884;-67
2021/06/02 03:21:28;;;;;;;6.20;4.40;;;16.50;58.70;;;;;;5113860;28;20432;-67
2021/06/02 03:24:15;;;;;;;4.63;4.23;;;16.40;58.80;;;;;;5113846;28;20459;-67
2021/06/02 03:26:52;;;;;;;3.90;3.60;;;16.40;59.00;;;;;;5113667;28;20476;-67
2021/06/02 03:29:34;;;;;;;3.30;3.10;;;16.40;59.00;;;;;;5113774;28;20435;-67
2021/06/02 03:32:08;;;;;;;4.77;4.37;;;16.40;59.00;;;;;;5114288;28;20476;-67
2021/06/02 03:34:47;;;;;;;5.77;4.40;;;16.40;59.20;;;;;;5113878;28;20431;-67
2021/06/02 03:37:26;;;;;;;4.83;4.10;;;16.40;59.20;;;;;;5115835;28;20514;-67
2021/06/02 03:40:01;;;;;;;4.80;4.40;;;16.40;59.30;;;;;;5117770;28;20473;-67
2021/06/02 03:42:43;;;;;;;5.70;5.20;;;16.40;59.40;;;;;;5117665;28;20516;-67
2021/06/02 03:45:30;;;;;;;5.00;4.60;;;16.40;59.50;;;;;;5117470;28;20431;-67
2021/06/02 03:48:14;;;;;;;5.07;4.10;;;16.40;59.50;;;;;;5117637;28;20523;-66
2021/06/02 03:50:50;;;;;;;5.70;4.73;;;16.30;59.40;;;;;;5117566;28;20488;-66
2021/06/02 03:53:32;;;;;;;4.10;3.80;;;16.30;59.20;;;;;;5117542;28;20427;-66
2021/06/02 03:56:06;;;;;;;5.50;4.47;;;16.30;59.00;;;;;;5117415;28;20438;-66
2021/06/02 03:58:47;;;;;;;3.47;3.17;;;16.20;59.00;;;;;;5117136;28;20480;-67
2021/06/02 04:01:23;;;;;;;4.73;3.53;;;16.20;59.00;;;;;;5116961;28;20435;-66
2021/06/02 04:04:01;;;;;;;4.60;3.80;;;16.20;59.00;;;;;;5117329;28;20413;-66
2021/06/02 04:06:37;;;;;;;4.50;4.10;;;16.20;59.10;;;;;;5117288;28;20419;-66
2021/06/02 04:09:10;;;;;;;3.43;3.13;;;16.20;59.40;;;;;;5117197;28;20462;-66
2021/06/02 04:11:45;;;;;;;5.03;4.40;;;16.10;59.50;;;;;;5117025;28;20427;-66
2021/06/02 04:14:30;;;;;;;7.10;4.20;;;16.20;59.80;;;;;;5117470;28;20423;-66
2021/06/02 04:16:57;;;;;;;4.77;4.37;;;16.20;60.20;;;;;;5116963;28;20435;-66
2021/06/02 04:19:28;;;;;;;6.10;3.80;;;16.20;60.50;;;;;;5116890;28;20819;-66
2021/06/02 04:22:01;;;;;;;6.17;4.60;;;16.30;60.60;;;;;;5116838;28;20467;-66
2021/06/02 04:24:31;;;;;;;8.53;4.60;;;16.30;61.00;;;;;;5116922;27;20898;-66
2021/06/02 04:26:57;;;;;;;4.87;4.37;;;16.30;61.40;;;;;;5116705;28;20431;-66
2021/06/02 04:29:25;;;;;;;4.60;4.20;;;16.30;61.80;;;;;;5116753;28;20858;-66
2021/06/02 04:31:54;;;;;;;6.23;5.40;;;16.30;62.10;;;;;;5116674;28;20447;-66
2021/06/02 04:34:21;;;;;;;5.27;4.87;;;16.40;61.90;;;;;;5116674;28;20504;-66
2021/06/02 04:36:51;;;;;;;4.83;4.37;;;16.40;62.90;;;;;;5117274;28;20454;-66
2021/06/02 04:39:19;;;;;;;6.13;4.80;;;16.50;63.20;;;;;;5116619;28;20449;-66
2021/06/02 04:41:47;;;;;;;6.57;5.53;;;16.50;63.30;;;;;;5116466;28;20482;-66
2021/06/02 04:44:14;;;;;;;6.60;6.00;;;16.50;63.60;;;;;;5116460;28;20495;-66
2021/06/02 04:46:45;;;;;;;5.90;5.30;;;16.60;64.10;;;;;;5116282;28;20443;-66
2021/06/02 04:49:12;;;;;;;6.30;5.70;;;16.60;64.10;;;;;;5115776;28;20474;-66
2021/06/02 04:52:15;;;;;;;7.83;6.20;;;16.70;64.40;;;;;;5116319;28;20427;-66
2021/06/02 04:55:10;;;;;;;6.70;6.10;;;16.70;64.40;;;;;;5116286;27;20447;-66
2021/06/02 04:58:10;;;;;;;6.20;5.40;;;16.80;64.60;;;;;;5116365;28;20459;-66
2021/06/02 05:00:59;;;;;;;6.20;5.23;;;16.90;65.10;;;;;;5115894;28;20997;-66
2021/06/02 05:03:49;;;;;;;5.60;5.20;;;16.90;65.00;;;;;;5116196;28;20474;-66
2021/06/02 05:07:03;;;;;;;6.57;5.50;;;17.00;64.90;;;;;;5116088;28;20423;-66
2021/06/02 05:10:12;;;;;;;5.73;5.23;;;17.10;64.20;;;;;;5116403;28;20513;-66
2021/06/02 05:13:17;;;;;;;5.60;4.77;;;17.10;63.80;;;;;;5109031;27;20459;-66
2021/06/02 05:16:36;;;;;;;6.90;5.87;;;17.20;63.10;;;;;;5115903;28;20458;-66
2021/06/02 05:19:47;;;;;;;6.83;6.23;;;17.30;62.80;;;;;;5070437;28;20811;-66
2021/06/02 05:22:52;;;;;;;8.60;6.60;;;17.50;61.70;;;;;;5115563;28;20479;-66
2021/06/02 05:25:53;;;;;;;6.60;5.90;;;17.50;59.60;;;;;;5115495;28;20483;-66
2021/06/02 05:28:48;;;;;;;6.90;6.27;;;17.60;60.90;;;;;;5116691;28;20485;-66
2021/06/02 05:31:32;;;;;;;8.07;7.37;;;17.70;61.60;;;;;;5115469;28;20431;-66
2021/06/02 05:34:42;;;;;;;8.70;7.80;;;17.80;61.20;;;;;;5115515;28;20423;-66
2021/06/02 05:37:45;;;;;;;7.77;6.97;;;17.90;62.00;;;;;;5115100;28;20438;-66
2021/06/02 05:40:24;;;;;;;7.77;6.73;;;18.00;60.00;;;;;;5115127;28;20439;-66
2021/06/02 05:43:18;;;;;;;7.67;6.80;;;18.10;60.20;;;;;;5115330;28;20516;-66
2021/06/02 05:46:16;;;;;;;8.20;6.30;;;18.20;60.00;;;;;;5115314;28;20438;-66
2021/06/02 05:49:25;;;;;;;7.53;6.70;;;18.30;59.70;;;;;;5114913;28;20443;-66
2021/06/02 05:52:05;;;;;;;10.27;7.77;;;18.40;59.50;;;;;;5115157;28;20419;-66
2021/06/02 05:55:10;;;;;;;10.30;8.23;;;18.60;59.30;;;;;;5114800;28;20901;-66
2021/06/02 05:58:07;;;;;;;13.80;8.27;;;18.70;58.70;;;;;;5114956;28;20504;-66
2021/06/02 06:01:06;;;;;;;7.47;6.77;;;18.80;57.30;;;;;;5114083;28;20431;-66
2021/06/02 06:04:09;;;;;;;7.63;6.00;;;19.00;57.30;;;;;;5114872;28;20471;-66
2021/06/02 06:06:43;;;;;;;8.17;5.43;;;19.10;56.80;;;;;;5114903;28;20419;-66
2021/06/02 06:09:46;;;;;;;7.07;5.80;;;19.30;56.50;;;;;;5114736;28;20454;-66
2021/06/02 06:12:44;;;;;;;6.20;5.10;;;19.40;56.00;;;;;;5114749;28;20427;-66
2021/06/02 06:15:49;;;;;;;5.77;5.17;;;19.60;55.50;;;;;;5114477;28;20419;-66
2021/06/02 06:18:54;;;;;;;5.80;4.87;;;19.70;54.40;;;;;;5114520;28;20463;-66
2021/06/02 06:21:59;;;;;;;6.00;5.37;;;19.90;53.30;;;;;;5114592;28;20435;-66
2021/06/02 06:24:31;;;;;;;6.10;3.93;;;19.80;52.80;;;;;;5031676;28;20427;-66
2021/06/02 06:27:03;;;;;;;6.43;3.80;;;19.90;52.80;;;;;;5097720;27;20791;-67
2021/06/02 06:29:36;;;;;;;5.10;4.70;;;20.00;53.00;;;;;;5114502;28;20439;-66
2021/06/02 06:32:03;;;;;;;4.60;4.13;;;20.10;52.80;;;;;;5114030;28;20469;-66
2021/06/02 06:34:33;;;;;;;5.43;3.77;;;20.20;52.70;;;;;;5114337;28;20469;-66
2021/06/02 06:37:01;;;;;;;4.93;3.93;;;20.40;52.60;;;;;;5114209;28;20449;-67
2021/06/02 06:39:41;;;;;;;4.83;4.33;;;20.70;52.60;;;;;;5114028;28;20447;-66
2021/06/02 06:42:11;;;;;;;11.30;4.33;;;20.90;52.20;;;;;;5114162;28;20836;-66
2021/06/02 06:44:41;;;;;;;4.30;4.00;;;21.10;51.60;;;;;;5114875;28;20478;-66
2021/06/02 06:47:09;;;;;;;6.13;3.50;;;21.30;51.20;;;;;;5114075;28;20443;-66
2021/06/02 06:49:37;;;;;;;3.90;3.60;;;21.50;51.00;;;;;;5114105;28;20500;-66
2021/06/02 06:52:04;;;;;;;6.50;4.47;;;21.80;50.50;;;;;;5113805;28;20439;-66
2021/06/02 06:54:33;;;;;;;5.00;3.87;;;22.00;49.70;;;;;;5114156;28;20468;-66
2021/06/02 06:57:01;;;;;;;5.50;4.50;;;22.20;49.50;;;;;;5113955;28;20447;-67
2021/06/02 06:59:27;;;;;;;5.70;4.20;;;22.40;48.80;;;;;;5113673;28;20455;-66
2021/06/02 07:01:54;;;;;;;4.70;4.33;;;22.50;48.10;;;;;;5113795;28;20482;-66
2021/06/02 07:04:21;;;;;;;4.33;3.93;;;22.70;48.00;;;;;;5113983;28;20438;-66
2021/06/02 07:06:48;;;;;;;4.57;4.10;;;22.90;47.60;;;;;;5114027;28;20424;-66
2021/06/02 07:09:16;;;;;;;5.57;3.60;;;23.10;47.50;;;;;;5113467;28;20988;-66
2021/06/02 07:11:44;;;;;;;4.07;3.43;;;23.30;47.10;;;;;;5113656;28;20451;-67
2021/06/02 07:14:12;;;;;;;4.63;3.43;;;23.50;46.50;;;;;;5113802;28;20486;-66
2021/06/02 07:16:40;;;;;;;4.50;3.83;;;23.70;45.90;;;;;;5113442;28;20450;-66
2021/06/02 07:19:08;;;;;;;3.23;2.83;;;23.90;45.90;;;;;;5113773;28;20462;-67
2021/06/02 07:21:37;;;;;;;3.73;3.30;;;24.20;45.60;;;;;;5113504;28;20454;-67
2021/06/02 07:24:04;;;;;;;4.37;3.60;;;24.40;45.00;;;;;;5113869;28;20439;-67
2021/06/02 07:26:30;;;;;;;3.57;3.27;;;24.50;43.70;;;;;;5113400;28;20933;-67
2021/06/02 07:28:58;;;;;;;5.50;4.40;;;24.70;43.70;;;;;;5113598;28;20536;-67
2021/06/02 07:31:24;;;;;;;5.10;3.77;;;25.00;44.30;;;;;;5113404;28;20974;-67
2021/06/02 07:33:50;;;;;;;4.77;4.00;;;25.20;43.70;;;;;;5113718;28;20443;-67
2021/06/02 07:36:16;;;;;;;5.43;3.70;;;25.40;43.00;;;;;;5113217;28;20439;-67
2021/06/02 07:38:43;;;;;;;5.70;3.60;;;25.70;42.80;;;;;;5113572;28;20470;-67
2021/06/02 07:41:10;;;;;;;3.83;3.40;;;25.90;43.20;;;;;;5113664;28;20427;-67
2021/06/02 07:43:36;;;;;;;6.00;4.10;;;26.10;42.70;;;;;;5113446;28;20487;-67
2021/06/02 07:46:04;;;;;;;3.73;3.43;;;26.30;41.80;;;;;;5113526;28;20450;-67
2021/06/02 07:48:30;;;;;;;5.93;4.53;;;26.50;41.20;;;;;;5113485;28;20463;-67
2021/06/02 07:50:58;;;;;;;4.10;3.70;;;26.70;41.60;;;;;;5113449;28;20450;-67
2021/06/02 07:53:24;;;;;;;6.30;4.07;;;26.90;40.80;;;;;;5113532;28;20439;-67
2021/06/02 07:55:51;;;;;;;7.90;3.50;;;27.00;38.60;;;;;;5113428;28;20447;-67
2021/06/02 07:58:18;;;;;;;6.90;3.80;;;27.10;38.60;;;;;;5113095;28;20482;-67
2021/06/02 08:00:44;;;;;;;4.13;3.40;;;27.30;38.50;;;;;;5113447;28;20748;-67
2021/06/02 08:03:12;;;;;;;6.80;3.70;;;27.50;38.70;;;;;;5113269;28;20485;-67
2021/06/02 08:05:38;;;;;;;4.93;3.60;;;27.70;38.40;;;;;;5113084;28;20909;-67
2021/06/02 08:08:04;;;;;;;8.57;3.30;;;27.80;37.20;;;;;;5113331;28;20474;-67
2021/06/02 08:10:31;;;;;;;4.33;3.40;;;28.00;37.00;;;;;;5113333;28;20488;-67
2021/06/02 08:12:58;;;;;;;4.40;3.63;;;28.20;37.50;;;;;;5113363;28;20419;-67
2021/06/02 08:15:26;;;;;;;5.07;3.90;;;28.40;37.70;;;;;;5113220;28;20447;-67
2021/06/02 08:17:52;;;;;;;5.20;3.30;;;28.50;35.50;;;;;;5113301;28;20462;-67
2021/06/02 08:20:19;;;;;;;4.00;3.50;;;28.70;36.40;;;;;;5113141;28;20905;-67
2021/06/02 08:22:46;;;;;;;3.73;3.33;;;28.90;37.10;;;;;;5113169;28;20467;-67
2021/06/02 08:25:15;;;;;;;4.10;3.70;;;29.00;37.10;;;;;;5116465;28;20431;-67
2021/06/02 08:27:41;;;;;;;6.10;3.47;;;29.20;36.90;;;;;;5116732;28;20466;-67
2021/06/02 08:30:09;;;;;;;6.67;4.30;;;29.40;35.90;;;;;;5116793;28;20446;-67
2021/06/02 08:32:38;;;;;;;4.10;3.23;;;29.60;35.80;;;;;;5116438;28;20841;-67
2021/06/02 08:35:05;;;;;;;6.63;3.60;;;29.80;34.80;;;;;;5116747;28;20443;-67
2021/06/02 08:37:33;;;;;;;7.27;3.73;;;29.80;32.60;;;;;;5116661;28;20473;-67
2021/06/02 08:39:59;;;;;;;6.90;3.60;;;29.70;33.10;;;;;;5116698;28;20431;-67
2021/06/02 08:42:26;;;;;;;7.97;4.17;;;29.70;34.10;;;;;;5116188;28;20481;-67
2021/06/02 08:44:53;;;;;;;7.40;3.97;;;29.90;34.90;;;;;;5116234;28;20940;-67
2021/06/02 08:47:20;;;;;;;5.50;3.00;;;30.10;35.00;;;;;;5116039;28;20984;-67
2021/06/02 08:49:46;;;;;;;4.13;3.70;;;30.40;34.10;;;;;;5116445;28;20496;-67
2021/06/02 08:52:13;;;;;;;3.90;3.50;;;30.50;31.50;;;;;;5116332;28;20454;-67
2021/06/02 08:54:40;;;;;;;6.90;3.50;;;30.70;31.70;;;;;;5116362;28;20423;-68
2021/06/02 08:57:09;;;;;;;8.87;3.63;;;30.90;31.60;;;;;;5116222;28;20446;-68
2021/06/02 08:59:35;;;;;;;5.93;3.70;;;31.00;30.70;;;;;;5115839;28;20836;-68
2021/06/02 09:02:02;;;;;;;8.60;4.20;;;31.20;31.70;;;;;;5116149;28;20431;-67
2021/06/02 09:04:30;;;;;;;7.03;3.70;;;31.40;31.80;;;;;;5116188;28;20435;-67
2021/06/02 09:06:58;;;;;;;3.23;3.00;;;31.60;31.70;;;;;;5116022;28;20438;-68
2021/06/02 09:09:26;;;;;;;3.37;3.07;;;31.70;30.70;;;;;;5116099;28;20426;-67
2021/06/02 09:11:53;;;;;;;10.70;4.27;;;32.00;30.50;;;;;;5116024;28;20443;-67
2021/06/02 09:14:25;;;;;;;3.60;3.30;;;32.20;30.20;;;;;;5115961;28;20450;-67
2021/06/02 09:16:53;;;;;;;3.97;3.57;;;32.20;28.00;;;;;;5115615;28;20426;-67
2021/06/02 09:19:36;;;;;;;8.43;4.63;;;32.30;28.80;;;;;;5115871;28;20442;-67
2021/06/02 09:22:03;;;;;;;5.83;3.37;;;32.50;28.60;;;;;;5115799;28;20434;-67
2021/06/02 09:24:51;;;;;;;4.30;3.60;;;32.70;28.00;;;;;;5115787;28;20462;-67
2021/06/02 09:27:20;;;;;;;3.53;2.83;;;32.90;26.40;;;;;;5115355;28;20473;-68
2021/06/02 09:29:54;;;;;;;4.80;2.83;;;33.10;26.40;;;;;;5115633;28;20442;-68
2021/06/02 09:32:22;;;;;;;7.47;3.63;;;33.40;26.90;;;;;;5116153;27;20485;-68
2021/06/02 09:34:49;;;;;;;5.13;2.87;;;33.60;26.60;;;;;;5115471;28;20438;-68
2021/06/02 09:37:15;;;;;;;5.00;3.73;;;33.70;25.00;;;;;;5115433;28;20482;-68
2021/06/02 09:39:43;;;;;;;3.30;3.00;;;33.80;26.10;;;;;;5115530;28;20798;-68
2021/06/02 09:42:23;;;;;;;6.70;3.23;;;33.90;24.50;;;;;;5115862;28;20468;-68
2021/06/02 09:45:05;;;;;;;3.00;2.70;;;33.70;22.70;;;;;;5115392;28;20430;-68
2021/06/02 09:47:43;;;;;;;4.93;3.40;;;33.70;23.90;;;;;;5115261;28;20488;-68
2021/06/02 09:50:12;;;;;;;3.50;2.63;;;33.70;23.10;;;;;;5114969;28;20917;-68
2021/06/02 09:52:45;;;;;;;3.63;3.30;;;33.80;24.20;;;;;;5115239;28;20423;-68
2021/06/02 09:55:20;;;;;;;3.90;2.93;;;33.80;22.30;;;;;;5115168;28;20771;-68
2021/06/02 09:57:54;;;;;;;3.93;3.20;;;33.80;23.50;;;;;;5115119;28;20502;-68
2021/06/02 10:00:21;;;;;;;3.10;2.80;;;34.00;24.80;;;;;;5114656;28;20448;-68
2021/06/02 10:02:58;;;;;;;3.17;2.87;;;34.40;25.60;;;;;;5115525;28;20516;-68
2021/06/02 10:05:24;;;;;;;4.23;2.70;;;34.70;25.40;;;;;;5114970;28;20495;-67
2021/06/02 10:07:50;;;;;;;3.50;2.73;;;35.10;22.80;;;;;;5114612;28;20462;-68
2021/06/02 10:10:19;;;;;;;5.27;2.70;;;35.20;21.70;;;;;;5114894;28;20446;-68
2021/06/02 10:13:01;;;;;;;5.20;2.87;;;35.60;23.10;;;;;;5114823;28;20453;-68
2021/06/02 10:15:33;;;;;;;2.50;2.30;;;36.00;22.00;;;;;;5114549;28;20908;-68
2021/06/02 10:18:00;;;;;;;2.47;2.27;;;36.20;19.10;;;;;;5114859;28;20466;-68
2021/06/02 10:20:27;;;;;;;3.03;2.37;;;36.50;20.20;;;;;;5114810;27;20483;-68
2021/06/02 10:22:54;;;;;;;4.13;2.90;;;36.60;18.50;;;;;;5114567;28;20527;-68
2021/06/02 10:25:23;;;;;;;2.60;2.13;;;36.80;18.90;;;;;;5114749;28;20442;-68
2021/06/02 10:27:52;;;;;;;3.87;2.60;;;37.20;20.00;;;;;;5114582;28;20462;-68
2021/06/02 10:30:22;;;;;;;4.07;2.50;;;37.50;17.80;;;;;;5114309;28;20659;-68
2021/06/02 10:32:50;;;;;;;2.30;2.10;;;37.60;17.10;;;;;;5114639;28;20422;-68
2021/06/02 10:35:16;;;;;;;3.10;2.30;;;37.90;18.50;;;;;;5114718;28;20185;-68
2021/06/02 10:37:44;;;;;;;2.83;2.60;;;38.10;17.00;;;;;;5114234;28;20754;-67
2021/06/02 10:40:16;;;;;;;6.20;1.97;;;37.50;15.90;;;;;;5114246;28;20184;-68
2021/06/02 10:42:49;;;;;;;4.23;2.40;;;37.30;18.30;;;;;;5114469;28;20226;-68
2021/06/02 10:45:21;;;;;;;5.10;2.20;;;37.80;19.30;;;;;;5114345;28;20185;-68
2021/06/02 10:47:56;;;;;;;4.53;2.50;;;38.40;17.60;;;;;;5113771;28;20220;-68
2021/06/02 10:50:36;;;;;;;2.70;2.40;;;39.10;16.70;;;;;;5115109;28;20191;-68
2021/06/02 10:53:21;;;;;;;2.88;2.58;;;39.60;15.60;;;;;;5113870;28;20230;-68
2021/06/02 10:55:48;;;;;;;3.78;2.50;;;40.30;16.90;;;;;;5114133;28;20181;-68
2021/06/02 10:58:22;;;;;;;2.65;2.40;;;40.90;17.10;;;;;;5113718;28;20232;-68
2021/06/02 11:00:51;;;;;;;2.42;2.22;;;41.50;15.00;;;;;;5114092;28;20188;-68
2021/06/02 11:03:19;;;;;;;4.07;2.67;;;41.20;14.20;;;;;;5114461;28;20217;-68
2021/06/02 11:05:45;;;;;;;3.67;2.38;;;40.90;14.30;;;;;;5114028;28;20216;-68
2021/06/02 11:08:12;;;;;;;3.05;2.15;;;41.10;14.00;;;;;;5113921;28;20232;-68
2021/06/02 11:10:38;;;;;;;3.85;2.50;;;40.40;13.40;;;;;;5114056;28;20545;-68
2021/06/02 11:13:06;;;;;;;2.50;2.30;;;39.70;14.50;;;;;;5113941;28;20235;-68
2021/06/02 11:15:45;;;;;;;3.22;2.00;;;39.40;15.30;;;;;;5114038;28;20188;-68
2021/06/02 11:18:21;;;;;;;4.18;2.25;;;40.00;17.40;;;;;;5113794;28;20277;-68
2021/06/02 11:20:50;;;;;;;2.75;2.08;;;40.70;15.10;;;;;;5113882;28;20184;-68
2021/06/02 11:23:18;;;;;;;2.53;2.30;;;41.40;16.10;;;;;;5113741;28;20228;-68
2021/06/02 11:25:45;;;;;;;3.55;2.38;;;42.20;15.60;;;;;;5113787;28;20223;-68
2021/06/02 11:28:42;;;;;;;3.03;1.92;;;43.00;14.90;;;;;;5113409;28;20709;-68
2021/06/02 11:31:21;;;;;;;1.92;1.80;;;43.70;14.20;;;;;;5113816;28;20192;-68
2021/06/02 11:33:50;;;;;;;5.32;2.20;;;44.20;13.10;;;;;;5113789;28;20190;-69
2021/06/02 11:36:17;;;;;;;2.97;2.67;;;44.50;13.40;;;;;;5113691;28;20196;-69
2021/06/02 11:38:44;;;;;;;3.17;2.00;;;44.80;12.10;;;;;;5113649;28;20243;-68
2021/06/02 11:41:12;;;;;;;3.65;2.28;;;44.40;11.40;;;;;;5113652;28;20204;-68
2021/06/02 11:43:38;;;;;;;2.30;2.10;;;44.20;12.10;;;;;;5113225;28;20212;-68
2021/06/02 11:46:05;;;;;;;2.35;2.15;;;44.30;13.60;;;;;;5113328;28;20530;-68
2021/06/02 11:48:34;;;;;;;4.60;2.28;;;44.70;13.10;;;;;;5113922;28;20256;-68
2021/06/02 11:51:08;;;;;;;4.30;2.00;;;45.30;13.40;;;;;;5113574;28;20188;-68
2021/06/02 11:53:45;;;;;;;1.60;1.50;;;45.70;12.20;;;;;;5113288;28;20595;-68
2021/06/02 11:56:12;;;;;;;4.28;2.28;;;46.20;12.60;;;;;;5113614;28;20188;-68
2021/06/02 11:58:40;;;;;;;1.90;1.80;;;46.50;12.40;;;;;;5114235;28;20224;-68
2021/06/02 12:01:07;;;;;;;2.13;1.88;;;46.70;11.90;;;;;;5117438;28;20193;-68
2021/06/02 12:03:33;;;;;;;2.58;1.98;;;46.90;12.20;;;;;;5117115;28;20716;-68
2021/06/02 12:06:00;;;;;;;4.95;1.92;;;47.10;10.70;;;;;;5117435;28;20261;-68
2021/06/02 12:08:28;;;;;;;3.60;2.03;;;46.90;10.20;;;;;;5117275;28;20220;-68
2021/06/02 12:10:57;;;;;;;3.60;1.80;;;46.80;9.40;;;;;;5116972;28;20289;-68
2021/06/02 12:13:26;;;;;;;3.20;1.75;;;46.70;11.40;;;;;;5117392;28;20613;-68
2021/06/02 12:15:55;;;;;;;2.78;1.60;;;47.00;12.00;;;;;;5117417;28;20715;-68
2021/06/02 12:18:33;;;;;;;3.45;1.83;;;47.40;11.60;;;;;;5117458;28;20633;-68
2021/06/02 12:21:15;;;;;;;2.38;1.65;;;47.90;11.80;;;;;;5117350;28;20191;-68
2021/06/02 12:23:54;;;;;;;1.50;1.40;;;47.50;9.10;;;;;;5117064;28;20209;-68
2021/06/02 12:26:24;;;;;;;2.25;1.80;;;46.40;9.40;;;;;;5117059;28;20233;-68
2021/06/02 12:28:51;;;;;;;1.92;1.67;;;46.10;10.50;;;;;;5116961;28;20550;-68
2021/06/02 12:31:35;;;;;;;1.70;1.60;;;46.40;12.00;;;;;;5116938;28;20184;-68
2021/06/02 12:34:10;;;;;;;2.58;1.67;;;46.70;10.30;;;;;;5116518;28;20643;-68
2021/06/02 12:36:41;;;;;;;2.95;1.63;;;47.20;11.30;;;;;;5116814;28;20180;-68
2021/06/02 12:39:11;;;;;;;2.33;1.40;;;47.90;11.60;;;;;;5116581;28;20217;-68
2021/06/02 12:41:38;;;;;;;2.50;2.28;;;48.60;11.00;;;;;;5116690;28;20196;-68
2021/06/02 12:44:05;;;;;;;3.72;1.73;;;48.90;9.00;;;;;;5116509;28;20212;-69
2021/06/02 12:46:32;;;;;;;2.75;1.65;;;48.00;9.00;;;;;;5116566;28;20200;-68
2021/06/02 12:49:01;;;;;;;1.90;1.73;;;47.90;10.60;;;;;;5116119;28;20223;-68
2021/06/02 12:51:27;;;;;;;3.95;1.65;;;48.30;11.20;;;;;;5116495;28;20342;-68
2021/06/02 12:53:54;;;;;;;1.80;1.60;;;48.90;10.20;;;;;;5116397;28;20204;-68
2021/06/02 12:56:22;;;;;;;3.50;1.90;;;49.50;10.30;;;;;;5116087;28;20196;-66
2021/06/02 12:58:53;;;;;;;1.58;1.48;;;50.00;8.60;;;;;;5116041;28;20232;-66
2021/06/02 13:01:20;;;;;;;1.80;1.70;;;50.20;9.50;;;;;;5116297;28;20239;-66
2021/06/02 13:03:49;;;;;;;1.67;1.55;;;50.50;9.50;;;;;;5116180;28;20254;-66
2021/06/02 13:06:17;;;;;;;3.05;1.40;;;50.80;8.40;;;;;;5116216;28;20204;-66
2021/06/02 13:08:44;;;;;;;2.55;1.67;;;51.10;9.50;;;;;;5115826;28;20229;-66
2021/06/02 13:11:11;;;;;;;2.00;1.55;;;51.60;9.30;;;;;;5115823;28;20204;-66
2021/06/02 13:13:40;;;;;;;2.88;1.52;;;51.90;8.90;;;;;;5116011;28;20212;-66
2021/06/02 13:16:08;;;;;;;3.63;1.77;;;52.20;8.70;;;;;;5115685;28;20650;-66
2021/06/02 13:18:35;;;;;;;1.80;1.52;;;52.60;8.60;;;;;;5115873;28;20259;-66
2021/06/02 13:21:11;;;;;;;2.55;1.50;;;52.90;8.30;;;;;;5115899;28;20536;-66
2021/06/02 13:23:38;;;;;;;4.47;1.45;;;53.10;8.20;;;;;;5115483;28;20696;-66
2021/06/02 13:26:07;;;;;;;2.03;1.70;;;53.50;8.00;;;;;;5115555;28;20181;-66